sensor_id;sensor_type;location;lat;lon;timestamp;temperature;humidity
10492;DHT22;5293;51.464;-2.566;2023-11-22T00:00:55;7.80;99.90
10492;DHT22;5293;51.464;-2.566;2023-11-22T00:03:21;7.80;99.90
10492;DHT22;5293;51.464;-2.566;2023-11-22T00:05:46;7.80;99.90
10492;DHT22;5293;51.464;-2.566;2023-11-22T00:08:13;7.80;99.90
10492;DHT22;5293;51.464;-2.566;2023-11-22T00:10:38;7.80;99.90
10492;DHT22;5293;51.464;-2.566;2023-11-22T00:13:04;7.90;99.90
10492;DHT22;5293;51.464;-2.566;2023-11-22T00:15:30;7.80;99.90
10492;DHT22;5293;51.464;-2.566;2023-11-22T00:17:56;7.90;99.90
10492;DHT22;5293;51.464;-2.566;2023-11-22T00:20:29;7.80;99.90
10492;DHT22;5293;51.464;-2.566;2023-11-22T00:22:55;7.80;99.90
10492;DHT22;5293;51.464;-2.566;2023-11-22T00:25:20;7.80;99.90
10492;DHT22;5293;51.464;-2.566;2023-11-22T00:27:46;7.80;99.90
10492;DHT22;5293;51.464;-2.566;2023-11-22T00:30:13;7.70;99.90
10492;DHT22;5293;51.464;-2.566;2023-11-22T00:32:39;7.70;99.90
10492;DHT22;5293;51.464;-2.566;2023-11-22T00:35:06;7.70;99.90
10492;DHT22;5293;51.464;-2.566;2023-11-22T00:37:33;7.70;99.90
10492;DHT22;5293;51.464;-2.566;2023-11-22T00:40:00;7.70;99.90
10492;DHT22;5293;51.464;-2.566;2023-11-22T00:42:26;7.60;99.90
10492;DHT22;5293;51.464;-2.566;2023-11-22T00:44:52;7.70;99.90
10492;DHT22;5293;51.464;-2.566;2023-11-22T00:47:19;7.70;99.90
10492;DHT22;5293;51.464;-2.566;2023-11-22T00:49:44;7.60;99.90
10492;DHT22;5293;51.464;-2.566;2023-11-22T00:52:10;7.60;99.90
10492;DHT22;5293;51.464;-2.566;2023-11-22T00:54:36;7.60;99.90
10492;DHT22;5293;51.464;-2.566;2023-11-22T00:57:01;7.70;99.90
10492;DHT22;5293;51.464;-2.566;2023-11-22T00:59:27;7.70;99.90
10492;DHT22;5293;51.464;-2.566;2023-11-22T01:01:52;7.70;99.90
10492;DHT22;5293;51.464;-2.566;2023-11-22T01:04:18;7.80;99.90
10492;DHT22;5293;51.464;-2.566;2023-11-22T01:06:44;7.80;99.90
10492;DHT22;5293;51.464;-2.566;2023-11-22T01:09:09;7.90;99.90
10492;DHT22;5293;51.464;-2.566;2023-11-22T01:11:37;7.90;99.90
10492;DHT22;5293;51.464;-2.566;2023-11-22T01:14:03;7.90;99.90
10492;DHT22;5293;51.464;-2.566;2023-11-22T01:16:29;8.00;99.90
10492;DHT22;5293;51.464;-2.566;2023-11-22T01:18:54;7.90;99.90
10492;DHT22;5293;51.464;-2.566;2023-11-22T01:21:20;8.00;99.90
10492;DHT22;5293;51.464;-2.566;2023-11-22T01:23:45;7.90;99.90
10492;DHT22;5293;51.464;-2.566;2023-11-22T01:26:12;7.90;99.90
10492;DHT22;5293;51.464;-2.566;2023-11-22T01:28:37;7.90;99.90
10492;DHT22;5293;51.464;-2.566;2023-11-22T01:31:05;7.80;99.90
10492;DHT22;5293;51.464;-2.566;2023-11-22T01:33:31;7.80;99.90
10492;DHT22;5293;51.464;-2.566;2023-11-22T01:36:01;7.80;99.90
10492;DHT22;5293;51.464;-2.566;2023-11-22T01:38:27;7.90;99.90
10492;DHT22;5293;51.464;-2.566;2023-11-22T01:40:53;7.90;99.90
10492;DHT22;5293;51.464;-2.566;2023-11-22T01:43:19;7.90;99.90
10492;DHT22;5293;51.464;-2.566;2023-11-22T01:45:46;7.90;99.90
10492;DHT22;5293;51.464;-2.566;2023-11-22T01:48:12;7.90;99.90
10492;DHT22;5293;51.464;-2.566;2023-11-22T01:50:38;7.90;99.90
10492;DHT22;5293;51.464;-2.566;2023-11-22T01:53:06;8.00;99.90
10492;DHT22;5293;51.464;-2.566;2023-11-22T01:55:31;8.00;99.90
10492;DHT22;5293;51.464;-2.566;2023-11-22T01:57:58;8.00;99.90
10492;DHT22;5293;51.464;-2.566;2023-11-22T02:00:26;8.00;99.90
10492;DHT22;5293;51.464;-2.566;2023-11-22T02:02:56;7.90;99.90
10492;DHT22;5293;51.464;-2.566;2023-11-22T02:05:22;7.90;99.90
10492;DHT22;5293;51.464;-2.566;2023-11-22T02:07:47;7.90;99.90
10492;DHT22;5293;51.464;-2.566;2023-11-22T02:10:13;7.90;99.90
10492;DHT22;5293;51.464;-2.566;2023-11-22T02:12:39;7.90;99.90
10492;DHT22;5293;51.464;-2.566;2023-11-22T02:15:06;7.90;99.90
10492;DHT22;5293;51.464;-2.566;2023-11-22T02:17:32;8.00;99.90
10492;DHT22;5293;51.464;-2.566;2023-11-22T02:19:59;7.90;99.90
10492;DHT22;5293;51.464;-2.566;2023-11-22T02:22:25;7.90;99.90
10492;DHT22;5293;51.464;-2.566;2023-11-22T02:24:51;7.90;99.90
10492;DHT22;5293;51.464;-2.566;2023-11-22T02:27:16;7.90;99.90
10492;DHT22;5293;51.464;-2.566;2023-11-22T02:29:42;7.90;99.90
10492;DHT22;5293;51.464;-2.566;2023-11-22T02:32:08;7.90;99.90
10492;DHT22;5293;51.464;-2.566;2023-11-22T02:34:33;7.90;99.90
10492;DHT22;5293;51.464;-2.566;2023-11-22T02:36:59;8.00;99.90
10492;DHT22;5293;51.464;-2.566;2023-11-22T02:39:39;7.90;99.90
10492;DHT22;5293;51.464;-2.566;2023-11-22T02:42:06;8.00;99.90
10492;DHT22;5293;51.464;-2.566;2023-11-22T02:44:32;8.00;99.90
10492;DHT22;5293;51.464;-2.566;2023-11-22T02:46:57;8.00;99.90
10492;DHT22;5293;51.464;-2.566;2023-11-22T02:49:23;8.00;99.90
10492;DHT22;5293;51.464;-2.566;2023-11-22T02:51:49;8.00;99.90
10492;DHT22;5293;51.464;-2.566;2023-11-22T02:54:15;8.00;99.90
10492;DHT22;5293;51.464;-2.566;2023-11-22T02:56:40;8.00;99.90
10492;DHT22;5293;51.464;-2.566;2023-11-22T02:59:06;8.00;99.90
10492;DHT22;5293;51.464;-2.566;2023-11-22T03:01:38;8.00;99.90
10492;DHT22;5293;51.464;-2.566;2023-11-22T03:04:08;8.00;99.90
10492;DHT22;5293;51.464;-2.566;2023-11-22T03:06:34;8.00;99.90
10492;DHT22;5293;51.464;-2.566;2023-11-22T03:09:00;7.90;99.90
10492;DHT22;5293;51.464;-2.566;2023-11-22T03:11:26;7.90;99.90
10492;DHT22;5293;51.464;-2.566;2023-11-22T03:13:52;7.90;99.90
10492;DHT22;5293;51.464;-2.566;2023-11-22T03:16:18;7.90;99.90
10492;DHT22;5293;51.464;-2.566;2023-11-22T03:18:44;7.90;99.90
10492;DHT22;5293;51.464;-2.566;2023-11-22T03:21:09;7.90;99.90
10492;DHT22;5293;51.464;-2.566;2023-11-22T03:23:35;7.90;99.90
10492;DHT22;5293;51.464;-2.566;2023-11-22T03:26:01;7.90;99.90
10492;DHT22;5293;51.464;-2.566;2023-11-22T03:28:27;7.90;99.90
10492;DHT22;5293;51.464;-2.566;2023-11-22T03:30:55;7.90;99.90
10492;DHT22;5293;51.464;-2.566;2023-11-22T03:33:21;7.80;99.90
10492;DHT22;5293;51.464;-2.566;2023-11-22T03:35:46;7.90;99.90
10492;DHT22;5293;51.464;-2.566;2023-11-22T03:38:12;7.90;99.90
10492;DHT22;5293;51.464;-2.566;2023-11-22T03:40:38;7.90;99.90
10492;DHT22;5293;51.464;-2.566;2023-11-22T03:43:03;7.90;99.90
10492;DHT22;5293;51.464;-2.566;2023-11-22T03:45:29;7.90;99.90
10492;DHT22;5293;51.464;-2.566;2023-11-22T03:47:55;7.90;99.90
10492;DHT22;5293;51.464;-2.566;2023-11-22T03:50:20;8.00;99.90
10492;DHT22;5293;51.464;-2.566;2023-11-22T03:52:46;8.00;99.90
10492;DHT22;5293;51.464;-2.566;2023-11-22T03:55:12;8.00;99.90
10492;DHT22;5293;51.464;-2.566;2023-11-22T03:57:38;8.10;99.90
10492;DHT22;5293;51.464;-2.566;2023-11-22T04:00:04;8.20;99.90
10492;DHT22;5293;51.464;-2.566;2023-11-22T04:02:31;8.20;99.90
10492;DHT22;5293;51.464;-2.566;2023-11-22T04:04:57;8.20;99.90
10492;DHT22;5293;51.464;-2.566;2023-11-22T04:07:23;8.20;99.90
10492;DHT22;5293;51.464;-2.566;2023-11-22T04:09:48;8.20;99.90
10492;DHT22;5293;51.464;-2.566;2023-11-22T04:12:14;8.20;99.90
10492;DHT22;5293;51.464;-2.566;2023-11-22T04:14:40;8.10;99.90
10492;DHT22;5293;51.464;-2.566;2023-11-22T04:17:05;8.20;99.90
10492;DHT22;5293;51.464;-2.566;2023-11-22T04:19:31;8.20;99.90
10492;DHT22;5293;51.464;-2.566;2023-11-22T04:21:57;8.20;99.90
10492;DHT22;5293;51.464;-2.566;2023-11-22T04:24:22;8.20;99.90
10492;DHT22;5293;51.464;-2.566;2023-11-22T04:26:48;8.20;99.90
10492;DHT22;5293;51.464;-2.566;2023-11-22T04:29:14;8.10;99.90
10492;DHT22;5293;51.464;-2.566;2023-11-22T04:31:39;8.10;99.90
10492;DHT22;5293;51.464;-2.566;2023-11-22T04:34:05;8.10;99.90
10492;DHT22;5293;51.464;-2.566;2023-11-22T04:36:31;8.00;99.90
10492;DHT22;5293;51.464;-2.566;2023-11-22T04:38:56;8.00;99.90
10492;DHT22;5293;51.464;-2.566;2023-11-22T04:41:22;8.00;99.90
10492;DHT22;5293;51.464;-2.566;2023-11-22T04:43:48;8.00;99.90
10492;DHT22;5293;51.464;-2.566;2023-11-22T04:46:13;7.90;99.90
10492;DHT22;5293;51.464;-2.566;2023-11-22T04:48:39;7.90;99.90
10492;DHT22;5293;51.464;-2.566;2023-11-22T04:51:07;7.80;99.90
10492;DHT22;5293;51.464;-2.566;2023-11-22T04:53:32;7.80;99.90
10492;DHT22;5293;51.464;-2.566;2023-11-22T04:55:58;7.80;99.90
10492;DHT22;5293;51.464;-2.566;2023-11-22T04:58:24;7.90;99.90
10492;DHT22;5293;51.464;-2.566;2023-11-22T05:00:50;7.90;99.90
10492;DHT22;5293;51.464;-2.566;2023-11-22T05:03:16;7.80;99.90
10492;DHT22;5293;51.464;-2.566;2023-11-22T05:05:41;7.80;99.90
10492;DHT22;5293;51.464;-2.566;2023-11-22T05:08:07;7.90;99.90
10492;DHT22;5293;51.464;-2.566;2023-11-22T05:10:32;7.90;99.90
10492;DHT22;5293;51.464;-2.566;2023-11-22T05:12:58;8.00;99.90
10492;DHT22;5293;51.464;-2.566;2023-11-22T05:15:26;7.90;99.90
10492;DHT22;5293;51.464;-2.566;2023-11-22T05:17:52;7.90;99.90
10492;DHT22;5293;51.464;-2.566;2023-11-22T05:20:18;7.90;99.90
10492;DHT22;5293;51.464;-2.566;2023-11-22T05:22:43;8.00;99.90
10492;DHT22;5293;51.464;-2.566;2023-11-22T05:25:09;8.00;99.90
10492;DHT22;5293;51.464;-2.566;2023-11-22T05:27:35;8.00;99.90
10492;DHT22;5293;51.464;-2.566;2023-11-22T05:30:00;8.00;99.90
10492;DHT22;5293;51.464;-2.566;2023-11-22T05:32:27;8.00;99.90
10492;DHT22;5293;51.464;-2.566;2023-11-22T05:34:53;8.00;99.90
10492;DHT22;5293;51.464;-2.566;2023-11-22T05:37:19;7.90;99.90
10492;DHT22;5293;51.464;-2.566;2023-11-22T05:39:45;7.90;99.90
10492;DHT22;5293;51.464;-2.566;2023-11-22T05:42:11;7.90;99.90
10492;DHT22;5293;51.464;-2.566;2023-11-22T05:44:37;7.90;99.90
10492;DHT22;5293;51.464;-2.566;2023-11-22T05:47:02;7.90;99.90
10492;DHT22;5293;51.464;-2.566;2023-11-22T05:49:28;7.90;99.90
10492;DHT22;5293;51.464;-2.566;2023-11-22T05:51:54;8.00;99.90
10492;DHT22;5293;51.464;-2.566;2023-11-22T05:54:19;8.00;99.90
10492;DHT22;5293;51.464;-2.566;2023-11-22T05:56:45;8.00;99.90
10492;DHT22;5293;51.464;-2.566;2023-11-22T05:59:11;8.00;99.90
10492;DHT22;5293;51.464;-2.566;2023-11-22T06:01:36;8.00;99.90
10492;DHT22;5293;51.464;-2.566;2023-11-22T06:04:02;8.00;99.90
10492;DHT22;5293;51.464;-2.566;2023-11-22T06:06:28;7.90;99.90
10492;DHT22;5293;51.464;-2.566;2023-11-22T06:08:54;8.00;99.90
10492;DHT22;5293;51.464;-2.566;2023-11-22T06:11:20;7.90;99.90
10492;DHT22;5293;51.464;-2.566;2023-11-22T06:13:46;8.00;99.90
10492;DHT22;5293;51.464;-2.566;2023-11-22T06:16:12;8.00;99.90
10492;DHT22;5293;51.464;-2.566;2023-11-22T06:18:38;8.00;99.90
10492;DHT22;5293;51.464;-2.566;2023-11-22T06:21:07;8.00;99.90
10492;DHT22;5293;51.464;-2.566;2023-11-22T06:23:32;7.90;99.90
10492;DHT22;5293;51.464;-2.566;2023-11-22T06:25:58;7.90;99.90
10492;DHT22;5293;51.464;-2.566;2023-11-22T06:28:24;7.80;99.90
10492;DHT22;5293;51.464;-2.566;2023-11-22T06:30:49;7.90;99.90
10492;DHT22;5293;51.464;-2.566;2023-11-22T06:33:16;7.90;99.90
10492;DHT22;5293;51.464;-2.566;2023-11-22T06:35:41;8.00;99.90
10492;DHT22;5293;51.464;-2.566;2023-11-22T06:38:08;7.90;99.90
10492;DHT22;5293;51.464;-2.566;2023-11-22T06:40:34;7.90;99.90
10492;DHT22;5293;51.464;-2.566;2023-11-22T06:42:59;7.90;99.90
10492;DHT22;5293;51.464;-2.566;2023-11-22T06:45:25;8.00;99.90
10492;DHT22;5293;51.464;-2.566;2023-11-22T06:47:51;8.00;99.90
10492;DHT22;5293;51.464;-2.566;2023-11-22T06:50:16;8.00;99.90
10492;DHT22;5293;51.464;-2.566;2023-11-22T06:52:42;8.00;99.90
10492;DHT22;5293;51.464;-2.566;2023-11-22T06:55:09;8.00;99.90
10492;DHT22;5293;51.464;-2.566;2023-11-22T06:57:37;8.00;99.90
10492;DHT22;5293;51.464;-2.566;2023-11-22T07:00:05;8.00;99.90
10492;DHT22;5293;51.464;-2.566;2023-11-22T07:02:34;8.00;99.90
10492;DHT22;5293;51.464;-2.566;2023-11-22T07:05:01;8.00;99.90
10492;DHT22;5293;51.464;-2.566;2023-11-22T07:07:27;8.00;99.90
10492;DHT22;5293;51.464;-2.566;2023-11-22T07:09:52;8.00;99.90
10492;DHT22;5293;51.464;-2.566;2023-11-22T07:12:18;8.10;99.90
10492;DHT22;5293;51.464;-2.566;2023-11-22T07:14:47;8.00;99.90
10492;DHT22;5293;51.464;-2.566;2023-11-22T07:17:15;8.00;99.90
10492;DHT22;5293;51.464;-2.566;2023-11-22T07:19:41;8.10;99.90
10492;DHT22;5293;51.464;-2.566;2023-11-22T07:22:13;8.10;99.90
10492;DHT22;5293;51.464;-2.566;2023-11-22T07:24:45;8.20;99.90
10492;DHT22;5293;51.464;-2.566;2023-11-22T07:27:11;8.20;99.90
10492;DHT22;5293;51.464;-2.566;2023-11-22T07:29:39;8.30;99.90
10492;DHT22;5293;51.464;-2.566;2023-11-22T07:32:06;8.30;99.90
10492;DHT22;5293;51.464;-2.566;2023-11-22T07:34:32;8.40;99.90
10492;DHT22;5293;51.464;-2.566;2023-11-22T07:36:59;8.40;99.90
10492;DHT22;5293;51.464;-2.566;2023-11-22T07:39:24;8.40;99.90
10492;DHT22;5293;51.464;-2.566;2023-11-22T07:41:53;8.40;99.90
10492;DHT22;5293;51.464;-2.566;2023-11-22T07:44:21;8.40;99.90
10492;DHT22;5293;51.464;-2.566;2023-11-22T07:46:47;8.30;99.90
10492;DHT22;5293;51.464;-2.566;2023-11-22T07:49:12;8.40;99.90
10492;DHT22;5293;51.464;-2.566;2023-11-22T07:51:39;8.40;99.90
10492;DHT22;5293;51.464;-2.566;2023-11-22T07:54:05;8.40;99.90
10492;DHT22;5293;51.464;-2.566;2023-11-22T07:56:31;8.50;99.90
10492;DHT22;5293;51.464;-2.566;2023-11-22T07:58:58;8.50;99.90
10492;DHT22;5293;51.464;-2.566;2023-11-22T08:01:24;8.50;99.90
10492;DHT22;5293;51.464;-2.566;2023-11-22T08:03:53;8.50;99.90
10492;DHT22;5293;51.464;-2.566;2023-11-22T08:06:21;8.60;99.90
10492;DHT22;5293;51.464;-2.566;2023-11-22T08:08:46;8.60;99.90
10492;DHT22;5293;51.464;-2.566;2023-11-22T08:11:12;8.60;99.90
10492;DHT22;5293;51.464;-2.566;2023-11-22T08:13:43;8.60;99.90
10492;DHT22;5293;51.464;-2.566;2023-11-22T08:16:09;8.60;99.90
10492;DHT22;5293;51.464;-2.566;2023-11-22T08:18:34;8.60;99.90
10492;DHT22;5293;51.464;-2.566;2023-11-22T08:21:00;8.60;99.90
10492;DHT22;5293;51.464;-2.566;2023-11-22T08:23:26;8.60;99.90
10492;DHT22;5293;51.464;-2.566;2023-11-22T08:25:56;8.70;99.90
10492;DHT22;5293;51.464;-2.566;2023-11-22T08:28:22;8.70;99.90
10492;DHT22;5293;51.464;-2.566;2023-11-22T08:30:48;8.70;99.90
10492;DHT22;5293;51.464;-2.566;2023-11-22T08:33:14;8.70;99.90
10492;DHT22;5293;51.464;-2.566;2023-11-22T08:35:39;8.80;99.90
10492;DHT22;5293;51.464;-2.566;2023-11-22T08:38:05;8.80;99.90
10492;DHT22;5293;51.464;-2.566;2023-11-22T08:40:34;8.80;99.90
10492;DHT22;5293;51.464;-2.566;2023-11-22T08:43:02;8.80;99.90
10492;DHT22;5293;51.464;-2.566;2023-11-22T08:45:29;8.90;99.90
10492;DHT22;5293;51.464;-2.566;2023-11-22T08:47:57;8.90;99.90
10492;DHT22;5293;51.464;-2.566;2023-11-22T08:50:23;9.00;99.90
10492;DHT22;5293;51.464;-2.566;2023-11-22T08:52:49;9.00;99.90
10492;DHT22;5293;51.464;-2.566;2023-11-22T08:55:18;9.10;99.90
10492;DHT22;5293;51.464;-2.566;2023-11-22T08:57:47;9.20;99.90
10492;DHT22;5293;51.464;-2.566;2023-11-22T09:00:13;9.30;99.90
10492;DHT22;5293;51.464;-2.566;2023-11-22T09:02:40;9.30;99.90
10492;DHT22;5293;51.464;-2.566;2023-11-22T09:05:06;9.40;99.90
10492;DHT22;5293;51.464;-2.566;2023-11-22T09:07:38;9.50;99.90
10492;DHT22;5293;51.464;-2.566;2023-11-22T09:10:05;9.50;99.90
10492;DHT22;5293;51.464;-2.566;2023-11-22T09:12:41;9.60;99.90
10492;DHT22;5293;51.464;-2.566;2023-11-22T09:15:11;9.60;99.90
10492;DHT22;5293;51.464;-2.566;2023-11-22T09:17:38;9.60;99.90
10492;DHT22;5293;51.464;-2.566;2023-11-22T09:20:18;9.60;99.90
10492;DHT22;5293;51.464;-2.566;2023-11-22T09:22:48;9.70;99.90
10492;DHT22;5293;51.464;-2.566;2023-11-22T09:25:18;9.70;99.90
10492;DHT22;5293;51.464;-2.566;2023-11-22T09:27:51;9.70;99.90
10492;DHT22;5293;51.464;-2.566;2023-11-22T09:30:20;9.80;99.90
10492;DHT22;5293;51.464;-2.566;2023-11-22T09:33:02;9.90;99.90
10492;DHT22;5293;51.464;-2.566;2023-11-22T09:35:28;9.90;99.90
10492;DHT22;5293;51.464;-2.566;2023-11-22T09:38:00;10.00;99.90
10492;DHT22;5293;51.464;-2.566;2023-11-22T09:40:27;10.00;99.90
10492;DHT22;5293;51.464;-2.566;2023-11-22T09:43:00;10.10;99.90
10492;DHT22;5293;51.464;-2.566;2023-11-22T09:45:28;10.10;99.90
10492;DHT22;5293;51.464;-2.566;2023-11-22T09:47:57;10.10;99.90
10492;DHT22;5293;51.464;-2.566;2023-11-22T09:52:52;10.20;99.90
10492;DHT22;5293;51.464;-2.566;2023-11-22T09:55:21;10.30;99.90
10492;DHT22;5293;51.464;-2.566;2023-11-22T09:57:51;10.40;99.90
10492;DHT22;5293;51.464;-2.566;2023-11-22T10:00:18;10.40;99.90
10492;DHT22;5293;51.464;-2.566;2023-11-22T10:02:47;10.50;99.90
10492;DHT22;5293;51.464;-2.566;2023-11-22T10:05:13;10.60;99.90
10492;DHT22;5293;51.464;-2.566;2023-11-22T10:07:39;10.60;99.90
10492;DHT22;5293;51.464;-2.566;2023-11-22T10:10:05;10.60;99.90
10492;DHT22;5293;51.464;-2.566;2023-11-22T10:12:32;10.70;99.90
10492;DHT22;5293;51.464;-2.566;2023-11-22T10:15:14;10.70;99.90
10492;DHT22;5293;51.464;-2.566;2023-11-22T10:17:40;10.80;99.90
10492;DHT22;5293;51.464;-2.566;2023-11-22T10:20:07;10.80;99.90
10492;DHT22;5293;51.464;-2.566;2023-11-22T10:22:44;10.90;99.90
10492;DHT22;5293;51.464;-2.566;2023-11-22T10:25:14;10.90;99.90
10492;DHT22;5293;51.464;-2.566;2023-11-22T10:27:47;10.90;99.90
10492;DHT22;5293;51.464;-2.566;2023-11-22T10:30:13;10.90;99.90
10492;DHT22;5293;51.464;-2.566;2023-11-22T10:32:41;10.90;99.90
10492;DHT22;5293;51.464;-2.566;2023-11-22T10:35:07;10.90;99.90
10492;DHT22;5293;51.464;-2.566;2023-11-22T10:37:33;10.90;99.90
10492;DHT22;5293;51.464;-2.566;2023-11-22T10:40:00;11.00;99.90
10492;DHT22;5293;51.464;-2.566;2023-11-22T10:42:26;11.10;99.90
10492;DHT22;5293;51.464;-2.566;2023-11-22T10:44:56;11.10;99.90
10492;DHT22;5293;51.464;-2.566;2023-11-22T10:47:28;11.10;99.90
10492;DHT22;5293;51.464;-2.566;2023-11-22T10:49:55;11.10;99.90
10492;DHT22;5293;51.464;-2.566;2023-11-22T10:52:23;11.10;99.90
10492;DHT22;5293;51.464;-2.566;2023-11-22T10:54:55;11.20;99.90
10492;DHT22;5293;51.464;-2.566;2023-11-22T10:57:22;11.30;99.90
10492;DHT22;5293;51.464;-2.566;2023-11-22T10:59:54;11.30;99.90
10492;DHT22;5293;51.464;-2.566;2023-11-22T11:02:21;11.40;99.90
10492;DHT22;5293;51.464;-2.566;2023-11-22T11:05:04;11.40;99.90
10492;DHT22;5293;51.464;-2.566;2023-11-22T11:07:40;11.30;99.90
10492;DHT22;5293;51.464;-2.566;2023-11-22T11:10:07;11.30;99.90
10492;DHT22;5293;51.464;-2.566;2023-11-22T11:12:33;11.30;99.90
10492;DHT22;5293;51.464;-2.566;2023-11-22T11:14:59;11.20;99.90
10492;DHT22;5293;51.464;-2.566;2023-11-22T11:17:25;11.20;99.90
10492;DHT22;5293;51.464;-2.566;2023-11-22T11:19:51;11.30;99.90
10492;DHT22;5293;51.464;-2.566;2023-11-22T11:22:17;11.30;99.90
10492;DHT22;5293;51.464;-2.566;2023-11-22T11:24:47;11.40;99.90
10492;DHT22;5293;51.464;-2.566;2023-11-22T11:27:13;11.40;99.90
10492;DHT22;5293;51.464;-2.566;2023-11-22T11:29:40;11.40;99.90
10492;DHT22;5293;51.464;-2.566;2023-11-22T11:32:30;11.50;99.90
10492;DHT22;5293;51.464;-2.566;2023-11-22T11:34:58;11.60;99.90
10492;DHT22;5293;51.464;-2.566;2023-11-22T11:37:25;11.60;99.90
10492;DHT22;5293;51.464;-2.566;2023-11-22T11:39:54;11.70;99.90
10492;DHT22;5293;51.464;-2.566;2023-11-22T11:42:20;11.80;99.90
10492;DHT22;5293;51.464;-2.566;2023-11-22T11:45:05;11.80;99.90
10492;DHT22;5293;51.464;-2.566;2023-11-22T11:47:33;11.80;99.90
10492;DHT22;5293;51.464;-2.566;2023-11-22T11:49:59;11.80;99.90
10492;DHT22;5293;51.464;-2.566;2023-11-22T11:52:26;11.90;99.90
10492;DHT22;5293;51.464;-2.566;2023-11-22T11:54:51;11.90;99.90
10492;DHT22;5293;51.464;-2.566;2023-11-22T11:57:17;11.90;99.90
10492;DHT22;5293;51.464;-2.566;2023-11-22T11:59:43;11.90;99.90
10492;DHT22;5293;51.464;-2.566;2023-11-22T12:02:10;12.00;99.90
10492;DHT22;5293;51.464;-2.566;2023-11-22T12:04:36;12.10;99.90
10492;DHT22;5293;51.464;-2.566;2023-11-22T12:07:02;12.10;99.90
10492;DHT22;5293;51.464;-2.566;2023-11-22T12:09:27;12.20;99.90
10492;DHT22;5293;51.464;-2.566;2023-11-22T12:11:56;12.30;99.90
10492;DHT22;5293;51.464;-2.566;2023-11-22T12:14:24;12.30;99.90
10492;DHT22;5293;51.464;-2.566;2023-11-22T12:16:51;12.40;99.90
10492;DHT22;5293;51.464;-2.566;2023-11-22T12:19:27;12.50;99.90
10492;DHT22;5293;51.464;-2.566;2023-11-22T12:21:53;12.50;99.90
10492;DHT22;5293;51.464;-2.566;2023-11-22T12:24:19;12.50;99.90
10492;DHT22;5293;51.464;-2.566;2023-11-22T12:26:46;12.50;99.90
10492;DHT22;5293;51.464;-2.566;2023-11-22T12:29:15;12.50;99.90
10492;DHT22;5293;51.464;-2.566;2023-11-22T12:31:48;12.40;99.90
10492;DHT22;5293;51.464;-2.566;2023-11-22T12:34:17;12.30;99.90
10492;DHT22;5293;51.464;-2.566;2023-11-22T12:36:43;12.30;99.90
10492;DHT22;5293;51.464;-2.566;2023-11-22T12:39:10;12.30;99.90
10492;DHT22;5293;51.464;-2.566;2023-11-22T12:41:50;12.30;99.90
10492;DHT22;5293;51.464;-2.566;2023-11-22T12:44:18;12.30;99.90
10492;DHT22;5293;51.464;-2.566;2023-11-22T12:46:52;12.30;99.90
10492;DHT22;5293;51.464;-2.566;2023-11-22T12:49:44;12.30;99.90
10492;DHT22;5293;51.464;-2.566;2023-11-22T12:52:11;12.40;99.90
10492;DHT22;5293;51.464;-2.566;2023-11-22T12:54:37;12.50;99.90
10492;DHT22;5293;51.464;-2.566;2023-11-22T12:57:10;12.50;99.90
10492;DHT22;5293;51.464;-2.566;2023-11-22T12:59:38;12.50;99.90
10492;DHT22;5293;51.464;-2.566;2023-11-22T13:02:05;12.50;99.90
10492;DHT22;5293;51.464;-2.566;2023-11-22T13:04:32;12.50;99.90
10492;DHT22;5293;51.464;-2.566;2023-11-22T13:06:59;12.50;99.90
10492;DHT22;5293;51.464;-2.566;2023-11-22T13:09:25;12.50;99.90
10492;DHT22;5293;51.464;-2.566;2023-11-22T13:11:51;12.60;99.90
10492;DHT22;5293;51.464;-2.566;2023-11-22T13:14:17;12.60;99.90
10492;DHT22;5293;51.464;-2.566;2023-11-22T13:16:44;12.50;99.90
10492;DHT22;5293;51.464;-2.566;2023-11-22T13:19:10;12.60;99.90
10492;DHT22;5293;51.464;-2.566;2023-11-22T13:21:36;12.60;99.90
10492;DHT22;5293;51.464;-2.566;2023-11-22T13:24:02;12.60;99.90
10492;DHT22;5293;51.464;-2.566;2023-11-22T13:26:29;12.60;99.90
10492;DHT22;5293;51.464;-2.566;2023-11-22T13:28:55;12.60;99.90
10492;DHT22;5293;51.464;-2.566;2023-11-22T13:31:21;12.60;99.90
10492;DHT22;5293;51.464;-2.566;2023-11-22T13:33:47;12.60;99.90
10492;DHT22;5293;51.464;-2.566;2023-11-22T13:36:13;12.70;99.90
10492;DHT22;5293;51.464;-2.566;2023-11-22T13:38:40;12.70;99.90
10492;DHT22;5293;51.464;-2.566;2023-11-22T13:41:06;12.70;99.90
10492;DHT22;5293;51.464;-2.566;2023-11-22T13:43:31;12.70;99.90
10492;DHT22;5293;51.464;-2.566;2023-11-22T13:46:00;12.60;99.90
10492;DHT22;5293;51.464;-2.566;2023-11-22T13:48:26;12.60;99.90
10492;DHT22;5293;51.464;-2.566;2023-11-22T13:50:51;12.70;99.90
10492;DHT22;5293;51.464;-2.566;2023-11-22T13:53:17;12.70;99.90
10492;DHT22;5293;51.464;-2.566;2023-11-22T13:55:47;12.60;99.90
10492;DHT22;5293;51.464;-2.566;2023-11-22T13:58:13;12.60;99.90
10492;DHT22;5293;51.464;-2.566;2023-11-22T14:00:39;12.60;99.90
10492;DHT22;5293;51.464;-2.566;2023-11-22T14:03:05;12.60;99.90
10492;DHT22;5293;51.464;-2.566;2023-11-22T14:05:36;12.60;99.90
10492;DHT22;5293;51.464;-2.566;2023-11-22T14:08:04;12.60;99.90
10492;DHT22;5293;51.464;-2.566;2023-11-22T14:10:29;12.60;99.90
10492;DHT22;5293;51.464;-2.566;2023-11-22T14:12:55;12.50;99.90
10492;DHT22;5293;51.464;-2.566;2023-11-22T14:15:26;12.50;99.90
10492;DHT22;5293;51.464;-2.566;2023-11-22T14:17:53;12.50;99.90
10492;DHT22;5293;51.464;-2.566;2023-11-22T14:20:19;12.60;99.90
10492;DHT22;5293;51.464;-2.566;2023-11-22T14:22:46;12.60;99.90
10492;DHT22;5293;51.464;-2.566;2023-11-22T14:25:13;12.50;99.90
10492;DHT22;5293;51.464;-2.566;2023-11-22T14:27:45;12.50;99.90
10492;DHT22;5293;51.464;-2.566;2023-11-22T14:30:12;12.40;99.90
10492;DHT22;5293;51.464;-2.566;2023-11-22T14:32:42;12.50;99.90
10492;DHT22;5293;51.464;-2.566;2023-11-22T14:35:09;12.50;99.90
10492;DHT22;5293;51.464;-2.566;2023-11-22T14:37:35;12.60;99.90
10492;DHT22;5293;51.464;-2.566;2023-11-22T14:40:01;12.60;99.90
10492;DHT22;5293;51.464;-2.566;2023-11-22T14:42:32;12.70;99.90
10492;DHT22;5293;51.464;-2.566;2023-11-22T14:44:58;12.80;99.90
10492;DHT22;5293;51.464;-2.566;2023-11-22T14:47:24;12.90;99.90
10492;DHT22;5293;51.464;-2.566;2023-11-22T14:49:52;12.90;99.90
10492;DHT22;5293;51.464;-2.566;2023-11-22T14:52:19;12.80;99.90
10492;DHT22;5293;51.464;-2.566;2023-11-22T14:54:46;12.80;99.90
10492;DHT22;5293;51.464;-2.566;2023-11-22T14:57:13;12.70;99.90
10492;DHT22;5293;51.464;-2.566;2023-11-22T14:59:40;12.60;99.90
10492;DHT22;5293;51.464;-2.566;2023-11-22T15:02:07;12.60;99.90
10492;DHT22;5293;51.464;-2.566;2023-11-22T15:04:40;12.70;99.90
10492;DHT22;5293;51.464;-2.566;2023-11-22T15:07:05;12.70;99.90
10492;DHT22;5293;51.464;-2.566;2023-11-22T15:09:32;12.70;99.90
10492;DHT22;5293;51.464;-2.566;2023-11-22T15:11:59;12.80;99.90
10492;DHT22;5293;51.464;-2.566;2023-11-22T15:14:25;12.70;99.90
10492;DHT22;5293;51.464;-2.566;2023-11-22T15:16:52;12.90;99.90
10492;DHT22;5293;51.464;-2.566;2023-11-22T15:19:17;12.90;99.90
10492;DHT22;5293;51.464;-2.566;2023-11-22T15:21:44;12.90;99.90
10492;DHT22;5293;51.464;-2.566;2023-11-22T15:24:09;12.80;99.90
10492;DHT22;5293;51.464;-2.566;2023-11-22T15:26:35;12.70;99.90
10492;DHT22;5293;51.464;-2.566;2023-11-22T15:29:01;12.60;99.90
10492;DHT22;5293;51.464;-2.566;2023-11-22T15:31:27;12.60;99.90
10492;DHT22;5293;51.464;-2.566;2023-11-22T15:33:53;12.60;99.90
10492;DHT22;5293;51.464;-2.566;2023-11-22T15:36:18;12.50;99.90
10492;DHT22;5293;51.464;-2.566;2023-11-22T15:38:45;12.60;99.90
10492;DHT22;5293;51.464;-2.566;2023-11-22T15:41:10;12.60;99.90